Aeroporto :
LOGIN :

Iscrizione | Disclaimer

   EN    FR    IT 

 










Sommario :    VFR   VFR Marginale   IFR   IFR Intensivo   IFR Molto Intensivo
Visibilità : 
Base nubi : 
>= 8 km
>= 3000ft
5 / 8 km
1000 / 3000 ft
1500m / 5 km
500 / 1000 ft
800 / 1500m
200 / 500 ft
< 800m
< 200 ft
Simboli :   Temporali  Nebbia  Neve Forte  Precipitazioni Forti  Vento > 20 kt
SIGMETs :   Varie  Temporali  Ghiacco  Turbolenza  Onda orograficha  Ceneri Vulcaniche






- Altitudine del aeroporto : 1106 ft


LFSO - Nancy / Ochey

ULTIMO METAR :
  • 250730Z AUTO 12003KT 0300 0250 R20/0350N FZFG VV/// M03/M04 Q1032 BECMG CAVOK

METARs OBSOLETI :
  • 250700Z AUTO 14002KT 0250 0200 R20/0225N FZFG VV/// M04/M04 Q1032 NOSIG
  • 250630Z AUTO VRB02KT 0250 0200 R20/0225N FZFG VV/// M04/M04 Q1032 NOSIG
  • 250600Z AUTO 17001KT 0300 0250 R20/0275N FZFG VV/// M05/M05 Q1032
  • 250530Z AUTO 00000KT 0250 R20/0300N FZFG VV/// M05/M05 Q1032
  • 250500Z AUTO 00000KT 0300 R20/0350N FZFG VV/// M04/M05 Q1032

TAF TAF LFSO
Valido dal 25 a 05 ore il 26 a 03 ore UTC


250553Z 2505/2603 VRB02KT 0300 FZFG VV///
BECMG 2509/2511 CAVOK
BECMG 2522/2524 0500 FZFG VV///



MetMap, La meteo Aeronautica in un colpo d'occhio ! - Copyright ORBIFLY Dicembre 2007 - Disclaimer

ORBIFLY MET'MAP TEAM :

Programmazione e sviluppo : Alexandra Zaïnal
Concezione : Baudouin d'Aumeries
Supporto tecnico e logistico : Manuel Goepfert
Aiuto : Marc-Olivier Méhu
Aiuto per la traduzione : Arnaldo La Scala

Contatto : metmap@orbifly.com




FONTI E CREDITI :

   NOAA